sensor_id;sensor_type;location;lat;lon;timestamp;temperature;humidity
14283;DHT22;7225;59.282;18.344;2023-05-10T00:00:42;10.10;99.90
14283;DHT22;7225;59.282;18.344;2023-05-10T00:03:09;10.10;99.90
14283;DHT22;7225;59.282;18.344;2023-05-10T00:05:36;10.10;99.90
14283;DHT22;7225;59.282;18.344;2023-05-10T00:08:03;10.10;99.90
14283;DHT22;7225;59.282;18.344;2023-05-10T00:10:30;10.10;99.90
14283;DHT22;7225;59.282;18.344;2023-05-10T00:12:57;10.00;99.90
14283;DHT22;7225;59.282;18.344;2023-05-10T00:15:24;10.00;99.90
14283;DHT22;7225;59.282;18.344;2023-05-10T00:17:51;10.00;99.90
14283;DHT22;7225;59.282;18.344;2023-05-10T00:20:18;10.00;99.90
14283;DHT22;7225;59.282;18.344;2023-05-10T00:22:45;10.00;99.90
14283;DHT22;7225;59.282;18.344;2023-05-10T00:25:12;10.00;99.90
14283;DHT22;7225;59.282;18.344;2023-05-10T00:27:39;9.90;99.90
14283;DHT22;7225;59.282;18.344;2023-05-10T00:30:06;9.90;99.90
14283;DHT22;7225;59.282;18.344;2023-05-10T00:32:34;9.90;99.90
14283;DHT22;7225;59.282;18.344;2023-05-10T00:35:01;9.90;99.90
14283;DHT22;7225;59.282;18.344;2023-05-10T00:37:28;9.90;99.90
14283;DHT22;7225;59.282;18.344;2023-05-10T00:39:55;9.80;99.90
14283;DHT22;7225;59.282;18.344;2023-05-10T00:42:22;9.80;99.90
14283;DHT22;7225;59.282;18.344;2023-05-10T00:44:49;9.80;99.90
14283;DHT22;7225;59.282;18.344;2023-05-10T00:47:16;9.80;99.90
14283;DHT22;7225;59.282;18.344;2023-05-10T00:49:44;9.80;99.90
14283;DHT22;7225;59.282;18.344;2023-05-10T00:52:11;9.80;99.90
14283;DHT22;7225;59.282;18.344;2023-05-10T00:54:38;9.70;99.90
14283;DHT22;7225;59.282;18.344;2023-05-10T00:57:05;9.70;99.90
14283;DHT22;7225;59.282;18.344;2023-05-10T00:59:32;9.70;99.90
14283;DHT22;7225;59.282;18.344;2023-05-10T01:01:59;9.70;99.90
14283;DHT22;7225;59.282;18.344;2023-05-10T01:04:27;9.60;99.90
14283;DHT22;7225;59.282;18.344;2023-05-10T01:06:55;9.60;99.90
14283;DHT22;7225;59.282;18.344;2023-05-10T01:09:22;9.60;99.90
14283;DHT22;7225;59.282;18.344;2023-05-10T01:11:49;9.60;99.90
14283;DHT22;7225;59.282;18.344;2023-05-10T01:14:18;9.60;99.90
14283;DHT22;7225;59.282;18.344;2023-05-10T01:16:47;9.60;99.90
14283;DHT22;7225;59.282;18.344;2023-05-10T01:19:22;9.60;99.90
14283;DHT22;7225;59.282;18.344;2023-05-10T01:27:17;9.50;99.90
14283;DHT22;7225;59.282;18.344;2023-05-10T01:43:35;9.30;99.90
14283;DHT22;7225;59.282;18.344;2023-05-10T01:46:09;9.20;99.90
14283;DHT22;7225;59.282;18.344;2023-05-10T01:48:47;9.10;99.90
14283;DHT22;7225;59.282;18.344;2023-05-10T01:51:24;9.10;99.90
14283;DHT22;7225;59.282;18.344;2023-05-10T01:53:54;9.10;99.90
14283;DHT22;7225;59.282;18.344;2023-05-10T01:56:26;9.10;99.90
14283;DHT22;7225;59.282;18.344;2023-05-10T01:58:55;9.00;99.90
14283;DHT22;7225;59.282;18.344;2023-05-10T02:01:24;9.00;99.90
14283;DHT22;7225;59.282;18.344;2023-05-10T02:03:53;8.90;99.90
14283;DHT22;7225;59.282;18.344;2023-05-10T02:06:23;8.90;99.90
14283;DHT22;7225;59.282;18.344;2023-05-10T02:08:51;8.80;99.90
14283;DHT22;7225;59.282;18.344;2023-05-10T02:11:19;8.70;99.90
14283;DHT22;7225;59.282;18.344;2023-05-10T02:13:49;8.50;99.90
14283;DHT22;7225;59.282;18.344;2023-05-10T02:16:18;8.40;99.90
14283;DHT22;7225;59.282;18.344;2023-05-10T02:18:50;8.30;99.90
14283;DHT22;7225;59.282;18.344;2023-05-10T02:21:20;8.10;99.90
14283;DHT22;7225;59.282;18.344;2023-05-10T02:23:50;8.10;99.90
14283;DHT22;7225;59.282;18.344;2023-05-10T02:26:26;7.90;99.90
14283;DHT22;7225;59.282;18.344;2023-05-10T02:28:56;7.80;99.90
14283;DHT22;7225;59.282;18.344;2023-05-10T02:31:24;7.70;99.90
14283;DHT22;7225;59.282;18.344;2023-05-10T02:33:52;7.60;99.90
14283;DHT22;7225;59.282;18.344;2023-05-10T02:36:21;7.60;99.90
14283;DHT22;7225;59.282;18.344;2023-05-10T02:38:50;7.60;99.90
14283;DHT22;7225;59.282;18.344;2023-05-10T02:41:20;7.60;99.90
14283;DHT22;7225;59.282;18.344;2023-05-10T02:43:52;7.60;99.90
14283;DHT22;7225;59.282;18.344;2023-05-10T02:46:22;7.70;99.90
14283;DHT22;7225;59.282;18.344;2023-05-10T02:48:49;7.60;99.90
14283;DHT22;7225;59.282;18.344;2023-05-10T02:51:18;7.70;99.90
14283;DHT22;7225;59.282;18.344;2023-05-10T02:53:46;7.70;99.90
14283;DHT22;7225;59.282;18.344;2023-05-10T02:56:19;7.80;99.90
14283;DHT22;7225;59.282;18.344;2023-05-10T02:58:50;7.80;99.90
14283;DHT22;7225;59.282;18.344;2023-05-10T03:01:17;7.90;99.90
14283;DHT22;7225;59.282;18.344;2023-05-10T03:03:44;7.90;99.90
14283;DHT22;7225;59.282;18.344;2023-05-10T03:06:11;7.90;99.90
14283;DHT22;7225;59.282;18.344;2023-05-10T03:08:38;7.90;99.90
14283;DHT22;7225;59.282;18.344;2023-05-10T03:16:52;8.00;99.90
14283;DHT22;7225;59.282;18.344;2023-05-10T03:19:49;8.00;99.90
14283;DHT22;7225;59.282;18.344;2023-05-10T03:22:26;8.10;99.90
14283;DHT22;7225;59.282;18.344;2023-05-10T03:24:57;8.10;99.90
14283;DHT22;7225;59.282;18.344;2023-05-10T03:27:26;8.20;99.90
14283;DHT22;7225;59.282;18.344;2023-05-10T03:29:55;8.20;99.90
14283;DHT22;7225;59.282;18.344;2023-05-10T03:32:23;8.20;99.90
14283;DHT22;7225;59.282;18.344;2023-05-10T03:34:50;8.30;99.90
14283;DHT22;7225;59.282;18.344;2023-05-10T03:37:17;8.20;99.90
14283;DHT22;7225;59.282;18.344;2023-05-10T03:39:44;8.20;99.90
14283;DHT22;7225;59.282;18.344;2023-05-10T03:42:11;8.30;99.90
14283;DHT22;7225;59.282;18.344;2023-05-10T03:44:39;8.30;99.90
14283;DHT22;7225;59.282;18.344;2023-05-10T03:47:06;8.30;99.90
14283;DHT22;7225;59.282;18.344;2023-05-10T03:49:33;8.30;99.90
14283;DHT22;7225;59.282;18.344;2023-05-10T03:52:00;8.40;99.90
14283;DHT22;7225;59.282;18.344;2023-05-10T03:54:27;8.40;99.90
14283;DHT22;7225;59.282;18.344;2023-05-10T03:56:54;8.40;99.90
14283;DHT22;7225;59.282;18.344;2023-05-10T03:59:21;8.50;99.90
14283;DHT22;7225;59.282;18.344;2023-05-10T04:01:48;8.50;99.90
14283;DHT22;7225;59.282;18.344;2023-05-10T04:04:15;8.50;99.90
14283;DHT22;7225;59.282;18.344;2023-05-10T04:06:45;8.60;99.90
14283;DHT22;7225;59.282;18.344;2023-05-10T04:09:12;8.60;99.90
14283;DHT22;7225;59.282;18.344;2023-05-10T04:11:39;8.60;99.90
14283;DHT22;7225;59.282;18.344;2023-05-10T04:14:06;8.70;99.90
14283;DHT22;7225;59.282;18.344;2023-05-10T04:16:33;8.70;99.90
14283;DHT22;7225;59.282;18.344;2023-05-10T04:19:00;8.70;99.90
14283;DHT22;7225;59.282;18.344;2023-05-10T04:21:27;8.80;99.90
14283;DHT22;7225;59.282;18.344;2023-05-10T04:23:54;8.80;99.90
14283;DHT22;7225;59.282;18.344;2023-05-10T04:26:21;8.80;99.90
14283;DHT22;7225;59.282;18.344;2023-05-10T04:28:48;8.90;99.90
14283;DHT22;7225;59.282;18.344;2023-05-10T04:31:15;8.90;99.90
14283;DHT22;7225;59.282;18.344;2023-05-10T04:33:42;8.90;99.90
14283;DHT22;7225;59.282;18.344;2023-05-10T04:36:09;9.00;99.90
14283;DHT22;7225;59.282;18.344;2023-05-10T04:38:36;9.00;99.90
14283;DHT22;7225;59.282;18.344;2023-05-10T04:41:08;9.10;99.90
14283;DHT22;7225;59.282;18.344;2023-05-10T04:43:35;9.10;99.90
14283;DHT22;7225;59.282;18.344;2023-05-10T04:46:04;9.20;99.90
14283;DHT22;7225;59.282;18.344;2023-05-10T04:48:31;9.20;99.90
14283;DHT22;7225;59.282;18.344;2023-05-10T04:50:58;9.20;99.90
14283;DHT22;7225;59.282;18.344;2023-05-10T04:53:25;9.30;99.90
14283;DHT22;7225;59.282;18.344;2023-05-10T04:55:52;9.30;99.90
14283;DHT22;7225;59.282;18.344;2023-05-10T04:58:19;9.30;99.90
14283;DHT22;7225;59.282;18.344;2023-05-10T05:00:46;9.40;99.90
14283;DHT22;7225;59.282;18.344;2023-05-10T05:03:13;9.40;99.90
14283;DHT22;7225;59.282;18.344;2023-05-10T05:05:40;9.40;99.90
14283;DHT22;7225;59.282;18.344;2023-05-10T05:08:07;9.50;99.90
14283;DHT22;7225;59.282;18.344;2023-05-10T05:10:34;9.50;99.90
14283;DHT22;7225;59.282;18.344;2023-05-10T05:13:01;9.60;99.90
14283;DHT22;7225;59.282;18.344;2023-05-10T05:15:28;9.60;99.90
14283;DHT22;7225;59.282;18.344;2023-05-10T05:17:56;9.60;99.90
14283;DHT22;7225;59.282;18.344;2023-05-10T05:20:23;9.70;99.90
14283;DHT22;7225;59.282;18.344;2023-05-10T05:22:50;9.70;99.90
14283;DHT22;7225;59.282;18.344;2023-05-10T05:25:17;9.70;99.90
14283;DHT22;7225;59.282;18.344;2023-05-10T05:27:44;9.80;99.90
14283;DHT22;7225;59.282;18.344;2023-05-10T05:30:11;9.90;99.90
14283;DHT22;7225;59.282;18.344;2023-05-10T05:32:39;9.90;99.90
14283;DHT22;7225;59.282;18.344;2023-05-10T05:35:06;10.00;99.90
14283;DHT22;7225;59.282;18.344;2023-05-10T05:37:33;10.00;99.90
14283;DHT22;7225;59.282;18.344;2023-05-10T05:40:00;10.10;99.90
14283;DHT22;7225;59.282;18.344;2023-05-10T05:42:28;10.10;99.90
14283;DHT22;7225;59.282;18.344;2023-05-10T05:44:55;10.20;99.90
14283;DHT22;7225;59.282;18.344;2023-05-10T05:47:22;10.30;99.90
14283;DHT22;7225;59.282;18.344;2023-05-10T05:49:49;10.40;99.90
14283;DHT22;7225;59.282;18.344;2023-05-10T05:52:16;10.40;99.90
14283;DHT22;7225;59.282;18.344;2023-05-10T05:54:44;10.50;99.90
14283;DHT22;7225;59.282;18.344;2023-05-10T05:57:11;10.70;99.90
14283;DHT22;7225;59.282;18.344;2023-05-10T05:59:38;10.80;99.90
14283;DHT22;7225;59.282;18.344;2023-05-10T06:02:10;10.90;99.90
14283;DHT22;7225;59.282;18.344;2023-05-10T06:04:37;11.00;99.90
14283;DHT22;7225;59.282;18.344;2023-05-10T06:07:04;11.20;99.90
14283;DHT22;7225;59.282;18.344;2023-05-10T06:09:31;11.30;99.90
14283;DHT22;7225;59.282;18.344;2023-05-10T06:11:58;11.40;99.90
14283;DHT22;7225;59.282;18.344;2023-05-10T06:14:25;11.50;99.90
14283;DHT22;7225;59.282;18.344;2023-05-10T06:16:52;11.60;99.90
14283;DHT22;7225;59.282;18.344;2023-05-10T06:19:19;11.60;99.90
14283;DHT22;7225;59.282;18.344;2023-05-10T06:21:46;11.70;99.90
14283;DHT22;7225;59.282;18.344;2023-05-10T06:24:14;11.80;99.90
14283;DHT22;7225;59.282;18.344;2023-05-10T06:26:41;11.90;99.90
14283;DHT22;7225;59.282;18.344;2023-05-10T06:29:08;12.00;99.90
14283;DHT22;7225;59.282;18.344;2023-05-10T06:31:35;12.10;99.90
14283;DHT22;7225;59.282;18.344;2023-05-10T06:34:02;12.20;99.90
14283;DHT22;7225;59.282;18.344;2023-05-10T06:36:29;12.10;99.90
14283;DHT22;7225;59.282;18.344;2023-05-10T06:38:56;12.20;99.90
14283;DHT22;7225;59.282;18.344;2023-05-10T06:41:23;12.20;99.90
14283;DHT22;7225;59.282;18.344;2023-05-10T06:43:51;12.20;99.90
14283;DHT22;7225;59.282;18.344;2023-05-10T06:46:17;12.40;99.90
14283;DHT22;7225;59.282;18.344;2023-05-10T06:48:45;12.50;99.90
14283;DHT22;7225;59.282;18.344;2023-05-10T06:51:12;12.70;99.90
14283;DHT22;7225;59.282;18.344;2023-05-10T06:53:39;12.90;99.90
14283;DHT22;7225;59.282;18.344;2023-05-10T06:56:06;13.10;99.90
14283;DHT22;7225;59.282;18.344;2023-05-10T06:58:33;13.10;99.90
14283;DHT22;7225;59.282;18.344;2023-05-10T07:01:04;13.20;99.90
14283;DHT22;7225;59.282;18.344;2023-05-10T07:03:32;13.30;99.90
14283;DHT22;7225;59.282;18.344;2023-05-10T07:06:03;13.40;99.90
14283;DHT22;7225;59.282;18.344;2023-05-10T07:08:34;13.60;99.90
14283;DHT22;7225;59.282;18.344;2023-05-10T07:11:05;13.90;99.90
14283;DHT22;7225;59.282;18.344;2023-05-10T07:13:34;14.00;99.90
14283;DHT22;7225;59.282;18.344;2023-05-10T07:16:01;14.20;99.90
14283;DHT22;7225;59.282;18.344;2023-05-10T07:18:29;14.30;99.90
14283;DHT22;7225;59.282;18.344;2023-05-10T07:20:57;14.30;99.90
14283;DHT22;7225;59.282;18.344;2023-05-10T07:23:24;14.00;99.90
14283;DHT22;7225;59.282;18.344;2023-05-10T07:25:52;14.00;99.90
14283;DHT22;7225;59.282;18.344;2023-05-10T07:28:19;14.10;99.90
14283;DHT22;7225;59.282;18.344;2023-05-10T07:30:47;14.20;99.90
14283;DHT22;7225;59.282;18.344;2023-05-10T07:33:14;14.20;99.90
14283;DHT22;7225;59.282;18.344;2023-05-10T07:35:43;14.10;99.90
14283;DHT22;7225;59.282;18.344;2023-05-10T07:38:10;14.20;99.90
14283;DHT22;7225;59.282;18.344;2023-05-10T07:40:40;14.30;99.90
14283;DHT22;7225;59.282;18.344;2023-05-10T07:43:07;14.20;99.90
14283;DHT22;7225;59.282;18.344;2023-05-10T07:45:34;14.10;99.90
14283;DHT22;7225;59.282;18.344;2023-05-10T07:48:01;14.30;99.90
14283;DHT22;7225;59.282;18.344;2023-05-10T07:50:28;14.40;99.90
14283;DHT22;7225;59.282;18.344;2023-05-10T07:52:55;14.50;99.90
14283;DHT22;7225;59.282;18.344;2023-05-10T07:55:22;14.60;99.90
14283;DHT22;7225;59.282;18.344;2023-05-10T07:57:49;14.80;99.90
14283;DHT22;7225;59.282;18.344;2023-05-10T08:00:18;15.00;99.90
14283;DHT22;7225;59.282;18.344;2023-05-10T08:02:45;15.30;99.90
14283;DHT22;7225;59.282;18.344;2023-05-10T08:05:12;15.40;99.90
14283;DHT22;7225;59.282;18.344;2023-05-10T08:07:41;15.50;99.90
14283;DHT22;7225;59.282;18.344;2023-05-10T08:10:08;15.70;99.90
14283;DHT22;7225;59.282;18.344;2023-05-10T08:12:35;15.80;99.90
14283;DHT22;7225;59.282;18.344;2023-05-10T08:15:02;15.90;99.90
14283;DHT22;7225;59.282;18.344;2023-05-10T08:17:30;16.10;99.90
14283;DHT22;7225;59.282;18.344;2023-05-10T08:19:57;16.30;99.90
14283;DHT22;7225;59.282;18.344;2023-05-10T08:22:24;16.30;99.90
14283;DHT22;7225;59.282;18.344;2023-05-10T08:24:51;16.60;99.90
14283;DHT22;7225;59.282;18.344;2023-05-10T08:27:18;16.90;99.90
14283;DHT22;7225;59.282;18.344;2023-05-10T08:29:45;16.90;99.90
14283;DHT22;7225;59.282;18.344;2023-05-10T08:32:16;17.00;99.90
14283;DHT22;7225;59.282;18.344;2023-05-10T08:34:43;17.20;99.90
14283;DHT22;7225;59.282;18.344;2023-05-10T08:37:10;17.40;99.90
14283;DHT22;7225;59.282;18.344;2023-05-10T08:39:40;17.40;99.90
14283;DHT22;7225;59.282;18.344;2023-05-10T08:42:07;17.50;99.90
14283;DHT22;7225;59.282;18.344;2023-05-10T08:44:36;17.90;99.90
14283;DHT22;7225;59.282;18.344;2023-05-10T08:47:06;18.00;99.90
14283;DHT22;7225;59.282;18.344;2023-05-10T08:49:34;18.20;99.90
14283;DHT22;7225;59.282;18.344;2023-05-10T08:52:03;18.30;99.90
14283;DHT22;7225;59.282;18.344;2023-05-10T08:54:32;18.40;99.90
14283;DHT22;7225;59.282;18.344;2023-05-10T08:57:00;18.60;99.90
14283;DHT22;7225;59.282;18.344;2023-05-10T08:59:27;18.40;99.90
14283;DHT22;7225;59.282;18.344;2023-05-10T09:01:57;18.50;99.90
14283;DHT22;7225;59.282;18.344;2023-05-10T09:04:25;18.70;99.90
14283;DHT22;7225;59.282;18.344;2023-05-10T09:06:53;18.20;99.90
14283;DHT22;7225;59.282;18.344;2023-05-10T09:09:21;18.20;99.90
14283;DHT22;7225;59.282;18.344;2023-05-10T09:11:49;18.00;99.90
14283;DHT22;7225;59.282;18.344;2023-05-10T09:14:17;18.40;99.90
14283;DHT22;7225;59.282;18.344;2023-05-10T09:16:44;18.50;99.90
14283;DHT22;7225;59.282;18.344;2023-05-10T09:19:11;18.50;99.90
14283;DHT22;7225;59.282;18.344;2023-05-10T09:21:38;18.10;99.90
14283;DHT22;7225;59.282;18.344;2023-05-10T09:24:06;18.20;99.90
14283;DHT22;7225;59.282;18.344;2023-05-10T09:26:34;18.20;99.90
14283;DHT22;7225;59.282;18.344;2023-05-10T09:29:02;18.40;99.90
14283;DHT22;7225;59.282;18.344;2023-05-10T09:31:44;18.50;99.90
14283;DHT22;7225;59.282;18.344;2023-05-10T09:34:18;18.60;99.90
14283;DHT22;7225;59.282;18.344;2023-05-10T09:36:53;18.50;99.90
14283;DHT22;7225;59.282;18.344;2023-05-10T09:39:21;18.60;99.90
14283;DHT22;7225;59.282;18.344;2023-05-10T09:41:58;18.80;99.90
14283;DHT22;7225;59.282;18.344;2023-05-10T09:44:26;18.70;99.90
14283;DHT22;7225;59.282;18.344;2023-05-10T09:46:53;18.80;99.90
14283;DHT22;7225;59.282;18.344;2023-05-10T09:49:21;19.10;99.90
14283;DHT22;7225;59.282;18.344;2023-05-10T09:52:00;19.40;99.90
14283;DHT22;7225;59.282;18.344;2023-05-10T09:54:28;19.60;99.90
14283;DHT22;7225;59.282;18.344;2023-05-10T09:56:55;19.80;99.90
14283;DHT22;7225;59.282;18.344;2023-05-10T09:59:25;19.90;99.90
14283;DHT22;7225;59.282;18.344;2023-05-10T10:01:57;20.00;99.90
14283;DHT22;7225;59.282;18.344;2023-05-10T10:04:24;20.00;99.90
14283;DHT22;7225;59.282;18.344;2023-05-10T10:07:02;20.30;99.90
14283;DHT22;7225;59.282;18.344;2023-05-10T10:09:30;20.40;99.90
14283;DHT22;7225;59.282;18.344;2023-05-10T10:11:59;20.20;99.90
14283;DHT22;7225;59.282;18.344;2023-05-10T10:14:27;20.10;99.70
14283;DHT22;7225;59.282;18.344;2023-05-10T10:16:54;20.00;99.50
14283;DHT22;7225;59.282;18.344;2023-05-10T10:19:36;19.90;99.70
14283;DHT22;7225;59.282;18.344;2023-05-10T10:22:04;19.70;99.60
14283;DHT22;7225;59.282;18.344;2023-05-10T10:24:31;19.80;98.80
14283;DHT22;7225;59.282;18.344;2023-05-10T10:27:12;19.80;99.40
14283;DHT22;7225;59.282;18.344;2023-05-10T10:30:13;19.80;99.40
14283;DHT22;7225;59.282;18.344;2023-05-10T10:35:04;19.80;98.90
14283;DHT22;7225;59.282;18.344;2023-05-10T10:37:48;19.90;99.20
14283;DHT22;7225;59.282;18.344;2023-05-10T10:40:33;19.90;98.30
14283;DHT22;7225;59.282;18.344;2023-05-10T10:43:26;20.00;98.80
14283;DHT22;7225;59.282;18.344;2023-05-10T10:48:41;20.10;98.30
14283;DHT22;7225;59.282;18.344;2023-05-10T10:51:08;20.40;97.50
14283;DHT22;7225;59.282;18.344;2023-05-10T10:53:38;20.50;96.10
14283;DHT22;7225;59.282;18.344;2023-05-10T10:56:11;20.30;95.40
14283;DHT22;7225;59.282;18.344;2023-05-10T10:58:40;20.00;95.20
14283;DHT22;7225;59.282;18.344;2023-05-10T11:01:17;20.00;96.40
14283;DHT22;7225;59.282;18.344;2023-05-10T11:06:31;20.50;94.90
14283;DHT22;7225;59.282;18.344;2023-05-10T11:09:00;20.70;95.60
14283;DHT22;7225;59.282;18.344;2023-05-10T11:11:32;20.60;93.80
14283;DHT22;7225;59.282;18.344;2023-05-10T11:14:04;20.60;93.90
14283;DHT22;7225;59.282;18.344;2023-05-10T11:16:44;20.90;93.90
14283;DHT22;7225;59.282;18.344;2023-05-10T11:19:13;20.60;92.60
14283;DHT22;7225;59.282;18.344;2023-05-10T11:21:52;20.20;90.90
14283;DHT22;7225;59.282;18.344;2023-05-10T11:24:37;20.30;91.10
14283;DHT22;7225;59.282;18.344;2023-05-10T11:27:05;20.40;90.60
14283;DHT22;7225;59.282;18.344;2023-05-10T11:29:32;20.40;90.90
14283;DHT22;7225;59.282;18.344;2023-05-10T11:32:00;20.70;91.20
14283;DHT22;7225;59.282;18.344;2023-05-10T11:34:31;20.90;90.90
14283;DHT22;7225;59.282;18.344;2023-05-10T11:37:01;21.20;89.00
14283;DHT22;7225;59.282;18.344;2023-05-10T11:39:30;20.60;87.80
14283;DHT22;7225;59.282;18.344;2023-05-10T11:41:58;20.70;88.20
14283;DHT22;7225;59.282;18.344;2023-05-10T11:44:31;20.90;88.60
14283;DHT22;7225;59.282;18.344;2023-05-10T11:47:02;20.50;86.10
14283;DHT22;7225;59.282;18.344;2023-05-10T11:49:30;20.70;85.90
14283;DHT22;7225;59.282;18.344;2023-05-10T11:52:04;20.50;83.40
14283;DHT22;7225;59.282;18.344;2023-05-10T11:54:32;20.50;86.20
14283;DHT22;7225;59.282;18.344;2023-05-10T11:57:01;20.40;87.70
14283;DHT22;7225;59.282;18.344;2023-05-10T11:59:28;20.80;82.70
14283;DHT22;7225;59.282;18.344;2023-05-10T12:01:55;21.10;81.20
14283;DHT22;7225;59.282;18.344;2023-05-10T12:04:23;21.20;81.40
14283;DHT22;7225;59.282;18.344;2023-05-10T12:06:50;21.40;80.20
14283;DHT22;7225;59.282;18.344;2023-05-10T12:09:17;21.20;77.10
14283;DHT22;7225;59.282;18.344;2023-05-10T12:11:57;21.40;76.50
14283;DHT22;7225;59.282;18.344;2023-05-10T12:14:24;21.10;72.00
14283;DHT22;7225;59.282;18.344;2023-05-10T12:16:51;20.80;74.80
14283;DHT22;7225;59.282;18.344;2023-05-10T12:19:19;20.80;72.30
14283;DHT22;7225;59.282;18.344;2023-05-10T12:21:48;21.00;71.70
14283;DHT22;7225;59.282;18.344;2023-05-10T12:24:15;20.70;70.30
14283;DHT22;7225;59.282;18.344;2023-05-10T12:26:45;20.70;71.20
14283;DHT22;7225;59.282;18.344;2023-05-10T12:29:30;20.60;70.60
14283;DHT22;7225;59.282;18.344;2023-05-10T12:31:59;20.30;69.70
14283;DHT22;7225;59.282;18.344;2023-05-10T12:34:34;20.30;70.10
14283;DHT22;7225;59.282;18.344;2023-05-10T12:37:02;20.20;68.60
14283;DHT22;7225;59.282;18.344;2023-05-10T12:39:59;20.30;69.40
14283;DHT22;7225;59.282;18.344;2023-05-10T12:42:26;20.40;68.40
14283;DHT22;7225;59.282;18.344;2023-05-10T12:44:56;20.20;66.70
14283;DHT22;7225;59.282;18.344;2023-05-10T12:47:23;20.00;67.20
14283;DHT22;7225;59.282;18.344;2023-05-10T12:49:50;20.00;68.20
14283;DHT22;7225;59.282;18.344;2023-05-10T12:52:17;20.20;69.70
14283;DHT22;7225;59.282;18.344;2023-05-10T12:54:45;20.30;71.00
14283;DHT22;7225;59.282;18.344;2023-05-10T12:57:13;20.20;69.40
14283;DHT22;7225;59.282;18.344;2023-05-10T12:59:40;20.20;70.00
14283;DHT22;7225;59.282;18.344;2023-05-10T13:02:07;19.80;67.10
14283;DHT22;7225;59.282;18.344;2023-05-10T13:04:34;20.20;69.20
14283;DHT22;7225;59.282;18.344;2023-05-10T13:07:04;20.10;67.60
14283;DHT22;7225;59.282;18.344;2023-05-10T13:09:31;19.90;68.50
14283;DHT22;7225;59.282;18.344;2023-05-10T13:11:58;20.00;68.70
14283;DHT22;7225;59.282;18.344;2023-05-10T13:14:25;20.20;69.30
14283;DHT22;7225;59.282;18.344;2023-05-10T13:16:52;20.10;68.30
14283;DHT22;7225;59.282;18.344;2023-05-10T13:19:19;20.30;69.50
14283;DHT22;7225;59.282;18.344;2023-05-10T13:21:47;20.10;69.00
14283;DHT22;7225;59.282;18.344;2023-05-10T13:24:14;20.20;68.10
14283;DHT22;7225;59.282;18.344;2023-05-10T13:26:41;20.50;68.40
14283;DHT22;7225;59.282;18.344;2023-05-10T13:29:08;20.60;68.10
14283;DHT22;7225;59.282;18.344;2023-05-10T13:31:35;20.60;68.80
14283;DHT22;7225;59.282;18.344;2023-05-10T13:34:03;20.20;67.60
14283;DHT22;7225;59.282;18.344;2023-05-10T13:36:29;20.40;68.10
14283;DHT22;7225;59.282;18.344;2023-05-10T13:38:57;20.40;68.40
14283;DHT22;7225;59.282;18.344;2023-05-10T13:41:24;20.40;68.80
14283;DHT22;7225;59.282;18.344;2023-05-10T13:43:51;20.50;68.30
14283;DHT22;7225;59.282;18.344;2023-05-10T13:46:18;20.50;68.20
14283;DHT22;7225;59.282;18.344;2023-05-10T13:48:46;20.50;67.90
14283;DHT22;7225;59.282;18.344;2023-05-10T13:51:12;20.20;66.90
14283;DHT22;7225;59.282;18.344;2023-05-10T13:53:39;19.90;68.20
14283;DHT22;7225;59.282;18.344;2023-05-10T13:56:06;20.10;67.90
14283;DHT22;7225;59.282;18.344;2023-05-10T13:58:33;20.10;68.30
14283;DHT22;7225;59.282;18.344;2023-05-10T14:01:01;20.20;67.90
14283;DHT22;7225;59.282;18.344;2023-05-10T14:03:28;19.90;65.80
14283;DHT22;7225;59.282;18.344;2023-05-10T14:05:56;19.70;65.40
14283;DHT22;7225;59.282;18.344;2023-05-10T14:08:22;19.50;66.30
14283;DHT22;7225;59.282;18.344;2023-05-10T14:10:49;19.70;68.00
14283;DHT22;7225;59.282;18.344;2023-05-10T14:13:17;19.60;66.30
14283;DHT22;7225;59.282;18.344;2023-05-10T14:15:44;19.60;66.80
14283;DHT22;7225;59.282;18.344;2023-05-10T14:18:11;19.60;67.00
14283;DHT22;7225;59.282;18.344;2023-05-10T14:20:38;19.30;65.40
14283;DHT22;7225;59.282;18.344;2023-05-10T14:23:05;19.40;66.70
14283;DHT22;7225;59.282;18.344;2023-05-10T14:25:32;19.40;66.40
14283;DHT22;7225;59.282;18.344;2023-05-10T14:27:59;19.20;66.40
14283;DHT22;7225;59.282;18.344;2023-05-10T14:30:26;19.20;66.00
14283;DHT22;7225;59.282;18.344;2023-05-10T14:32:53;19.10;67.00
14283;DHT22;7225;59.282;18.344;2023-05-10T14:35:21;19.10;66.40
14283;DHT22;7225;59.282;18.344;2023-05-10T14:37:48;18.80;65.30
14283;DHT22;7225;59.282;18.344;2023-05-10T14:40:15;18.90;66.00
14283;DHT22;7225;59.282;18.344;2023-05-10T14:42:43;18.80;66.30
14283;DHT22;7225;59.282;18.344;2023-05-10T14:45:11;18.70;66.00
14283;DHT22;7225;59.282;18.344;2023-05-10T14:47:38;18.60;65.70
14283;DHT22;7225;59.282;18.344;2023-05-10T14:50:06;18.80;66.60
14283;DHT22;7225;59.282;18.344;2023-05-10T14:52:33;18.60;65.50
14283;DHT22;7225;59.282;18.344;2023-05-10T14:55:00;18.80;65.80
14283;DHT22;7225;59.282;18.344;2023-05-10T14:57:28;18.70;65.90
14283;DHT22;7225;59.282;18.344;2023-05-10T14:59:56;18.30;64.20
14283;DHT22;7225;59.282;18.344;2023-05-10T15:02:24;18.50;65.10
14283;DHT22;7225;59.282;18.344;2023-05-10T15:04:52;18.20;64.50
14283;DHT22;7225;59.282;18.344;2023-05-10T15:07:19;18.00;65.00
14283;DHT22;7225;59.282;18.344;2023-05-10T15:09:52;18.10;65.40
14283;DHT22;7225;59.282;18.344;2023-05-10T15:12:19;18.00;64.30
14283;DHT22;7225;59.282;18.344;2023-05-10T15:14:47;18.10;65.40
14283;DHT22;7225;59.282;18.344;2023-05-10T15:17:14;18.10;65.50
14283;DHT22;7225;59.282;18.344;2023-05-10T15:19:41;17.90;63.50
14283;DHT22;7225;59.282;18.344;2023-05-10T15:22:08;18.00;64.70
14283;DHT22;7225;59.282;18.344;2023-05-10T15:24:35;18.00;65.70
14283;DHT22;7225;59.282;18.344;2023-05-10T15:27:02;17.80;64.40
14283;DHT22;7225;59.282;18.344;2023-05-10T15:29:30;17.70;65.10
14283;DHT22;7225;59.282;18.344;2023-05-10T15:31:58;17.60;65.70
14283;DHT22;7225;59.282;18.344;2023-05-10T15:34:25;17.50;66.30
14283;DHT22;7225;59.282;18.344;2023-05-10T15:36:52;17.60;66.90
14283;DHT22;7225;59.282;18.344;2023-05-10T15:39:19;17.60;66.60
14283;DHT22;7225;59.282;18.344;2023-05-10T15:41:46;17.50;67.10
14283;DHT22;7225;59.282;18.344;2023-05-10T15:44:13;17.40;65.80
14283;DHT22;7225;59.282;18.344;2023-05-10T15:46:40;17.40;66.30
14283;DHT22;7225;59.282;18.344;2023-05-10T15:49:07;17.30;65.90
14283;DHT22;7225;59.282;18.344;2023-05-10T15:51:34;17.20;66.40
14283;DHT22;7225;59.282;18.344;2023-05-10T15:54:02;17.20;66.70
14283;DHT22;7225;59.282;18.344;2023-05-10T15:56:34;17.10;66.40
14283;DHT22;7225;59.282;18.344;2023-05-10T15:59:01;17.20;66.80
14283;DHT22;7225;59.282;18.344;2023-05-10T16:01:30;17.00;66.10
14283;DHT22;7225;59.282;18.344;2023-05-10T16:03:58;16.80;66.30
14283;DHT22;7225;59.282;18.344;2023-05-10T16:06:25;16.80;67.40
14283;DHT22;7225;59.282;18.344;2023-05-10T16:08:52;16.80;68.10
14283;DHT22;7225;59.282;18.344;2023-05-10T16:11:21;16.70;67.50
14283;DHT22;7225;59.282;18.344;2023-05-10T16:13:48;16.60;67.40
14283;DHT22;7225;59.282;18.344;2023-05-10T16:16:15;16.40;67.40